GJOHN EGHP-EGLK
Flight info
| Callsign | GJOHN |
|---|---|
| Flight time | 0h 17m |
| Altitude | 1500 |
| Route | POPHAM OVERTON KINGSCLERE BRAMLEY HOUND GREEN BLACKBUSHE |
| Aircraft | C182/L-VGDW/C |
Departure
| Time | 2026-05-05 14:33 |
|---|---|
| Airport | Popham Airfield (EGHP) |
Arrival
| Time | 2026-05-05 14:50 |
|---|---|
| Airport | Blackbushe Airport (EGLK) |
| Time | Latitude | Longitude | Altitude | Speed | Heading |
|---|---|---|---|---|---|
| 2026-05-05 14:32 | 51.23803 | -1.26256 | 1507 ft | 88 kts | 340° |
| 2026-05-05 14:33 | 51.24234 | -1.26505 | 1505 ft | 88 kts | 344° |
| 2026-05-05 14:33 | 51.24844 | -1.26412 | 1503 ft | 89 kts | 12° |
| 2026-05-05 14:33 | 51.25445 | -1.26158 | 1504 ft | 90 kts | 13° |
| 2026-05-05 14:33 | 51.26048 | -1.25900 | 1503 ft | 90 kts | 13° |
| 2026-05-05 14:34 | 51.26649 | -1.25641 | 1503 ft | 90 kts | 14° |
| 2026-05-05 14:34 | 51.27252 | -1.25381 | 1502 ft | 90 kts | 14° |
| 2026-05-05 14:34 | 51.27854 | -1.25122 | 1502 ft | 90 kts | 14° |
| 2026-05-05 14:34 | 51.28457 | -1.24862 | 1501 ft | 90 kts | 14° |
| 2026-05-05 14:35 | 51.29058 | -1.24602 | 1501 ft | 90 kts | 13° |
| 2026-05-05 14:35 | 51.29660 | -1.24344 | 1499 ft | 89 kts | 14° |
| 2026-05-05 14:35 | 51.30257 | -1.24086 | 1500 ft | 89 kts | 13° |
| 2026-05-05 14:35 | 51.30860 | -1.23827 | 1501 ft | 90 kts | 13° |
| 2026-05-05 14:36 | 51.31469 | -1.23564 | 1502 ft | 92 kts | 13° |
| 2026-05-05 14:36 | 51.32079 | -1.23267 | 1498 ft | 92 kts | 23° |
| 2026-05-05 14:36 | 51.32419 | -1.22416 | 1488 ft | 99 kts | 79° |
| 2026-05-05 14:36 | 51.32360 | -1.21320 | 1498 ft | 99 kts | 90° |
| 2026-05-05 14:37 | 51.32322 | -1.20231 | 1501 ft | 98 kts | 85° |
| 2026-05-05 14:37 | 51.32324 | -1.19142 | 1502 ft | 98 kts | 83° |
| 2026-05-05 14:37 | 51.32343 | -1.18056 | 1502 ft | 98 kts | 82° |
| 2026-05-05 14:37 | 51.32368 | -1.16971 | 1502 ft | 98 kts | 82° |
| 2026-05-05 14:38 | 51.32395 | -1.15881 | 1501 ft | 98 kts | 82° |
| 2026-05-05 14:38 | 51.32424 | -1.14792 | 1501 ft | 98 kts | 82° |
| 2026-05-05 14:38 | 51.32453 | -1.13703 | 1501 ft | 98 kts | 82° |
| 2026-05-05 14:38 | 51.32482 | -1.12613 | 1501 ft | 98 kts | 82° |
| 2026-05-05 14:39 | 51.32511 | -1.11507 | 1501 ft | 98 kts | 82° |
| 2026-05-05 14:39 | 51.32540 | -1.10417 | 1501 ft | 98 kts | 82° |
| 2026-05-05 14:39 | 51.32568 | -1.09325 | 1501 ft | 98 kts | 82° |
| 2026-05-05 14:39 | 51.32597 | -1.08233 | 1501 ft | 98 kts | 82° |
| 2026-05-05 14:40 | 51.32625 | -1.07143 | 1501 ft | 98 kts | 82° |
| 2026-05-05 14:40 | 51.32653 | -1.06051 | 1501 ft | 98 kts | 82° |
| 2026-05-05 14:40 | 51.32674 | -1.04957 | 1503 ft | 99 kts | 83° |
| 2026-05-05 14:40 | 51.32692 | -1.03844 | 1503 ft | 101 kts | 84° |
| 2026-05-05 14:41 | 51.32709 | -1.02711 | 1502 ft | 103 kts | 84° |
| 2026-05-05 14:41 | 51.32725 | -1.01577 | 1501 ft | 103 kts | 84° |
| 2026-05-05 14:41 | 51.32741 | -1.00437 | 1500 ft | 102 kts | 84° |
| 2026-05-05 14:41 | 51.32757 | -0.99291 | 1499 ft | 101 kts | 84° |
| 2026-05-05 14:42 | 51.32772 | -0.98181 | 1495 ft | 97 kts | 84° |
| 2026-05-05 14:42 | 51.32786 | -0.97142 | 1486 ft | 91 kts | 83° |
| 2026-05-05 14:42 | 51.32802 | -0.96121 | 1422 ft | 92 kts | 83° |
| 2026-05-05 14:42 | 51.32828 | -0.95142 | 1353 ft | 85 kts | 82° |
| 2026-05-05 14:43 | 51.32858 | -0.94228 | 1291 ft | 82 kts | 81° |
| 2026-05-05 14:43 | 51.32900 | -0.93307 | 1217 ft | 84 kts | 79° |
| 2026-05-05 14:43 | 51.32868 | -0.92415 | 1167 ft | 79 kts | 104° |
| 2026-05-05 14:43 | 51.32586 | -0.91702 | 1154 ft | 74 kts | 117° |
| 2026-05-05 14:44 | 51.32313 | -0.91029 | 1123 ft | 71 kts | 115° |
| 2026-05-05 14:44 | 51.32064 | -0.90346 | 1085 ft | 71 kts | 114° |
| 2026-05-05 14:44 | 51.31841 | -0.89666 | 1028 ft | 68 kts | 107° |
| 2026-05-05 14:44 | 51.31758 | -0.88943 | 975 ft | 64 kts | 85° |
| 2026-05-05 14:45 | 51.31769 | -0.88223 | 878 ft | 66 kts | 81° |
| 2026-05-05 14:45 | 51.31830 | -0.87506 | 748 ft | 65 kts | 72° |
| 2026-05-05 14:45 | 51.31961 | -0.86828 | 618 ft | 63 kts | 67° |
| 2026-05-05 14:45 | 51.32103 | -0.86166 | 460 ft | 64 kts | 67° |
| 2026-05-05 14:46 | 51.32237 | -0.85513 | 351 ft | 59 kts | 68° |
| 2026-05-05 14:46 | 51.32355 | -0.84959 | 333 ft | 53 kts | 66° |
| 2026-05-05 14:46 | 51.32511 | -0.84259 | 489 ft | 75 kts | 67° |
| 2026-05-05 14:46 | 51.32543 | -0.83486 | 723 ft | 73 kts | 111° |
| 2026-05-05 14:47 | 51.32084 | -0.83127 | 790 ft | 81 kts | 178° |
| 2026-05-05 14:47 | 51.31613 | -0.83632 | 812 ft | 87 kts | 243° |
| 2026-05-05 14:47 | 51.31389 | -0.84566 | 803 ft | 89 kts | 254° |
| 2026-05-05 14:47 | 51.31152 | -0.85462 | 775 ft | 87 kts | 245° |
| 2026-05-05 14:48 | 51.30883 | -0.86324 | 757 ft | 85 kts | 245° |
| 2026-05-05 14:48 | 51.30630 | -0.87169 | 739 ft | 81 kts | 249° |
| 2026-05-05 14:48 | 51.30548 | -0.87717 | 744 ft | 70 kts | 272° |
| 2026-05-05 14:48 | 51.30765 | -0.88396 | 745 ft | 69 kts | 319° |
| 2026-05-05 14:49 | 51.31351 | -0.88600 | 739 ft | 68 kts | 13° |
| 2026-05-05 14:49 | 51.31598 | -0.88331 | 724 ft | 65 kts | 46° |
| 2026-05-05 14:49 | 51.31776 | -0.87653 | 685 ft | 66 kts | 66° |
| 2026-05-05 14:49 | 51.31925 | -0.86975 | 594 ft | 65 kts | 67° |
| 2026-05-05 14:50 | 51.32072 | -0.86316 | 480 ft | 61 kts | 68° |
| 2026-05-05 14:50 | 51.32205 | -0.85675 | 373 ft | 60 kts | 68° |
| 2026-05-05 14:50 | 51.32329 | -0.85088 | 329 ft | 48 kts | 67° |
| 2026-05-05 14:50 | 51.32415 | -0.84674 | 329 ft | 30 kts | 71° |
| 2026-05-05 14:51 | 51.32450 | -0.84507 | 329 ft | 13 kts | 71° |
| 2026-05-05 14:51 | 51.32448 | -0.84401 | 329 ft | 11 kts | 167° |
| 2026-05-05 14:51 | 51.32361 | -0.84398 | 329 ft | 11 kts | 181° |
| 2026-05-05 14:51 | 51.32334 | -0.84398 | 329 ft | 0 kts | 175° |
| 2026-05-05 14:52 | 51.32303 | -0.84398 | 329 ft | 9 kts | 180° |
| 2026-05-05 14:52 | 51.32291 | -0.84301 | 329 ft | 13 kts | 84° |
| 2026-05-05 14:53 | 51.32304 | -0.84146 | 329 ft | 14 kts | 82° |
| 2026-05-05 14:53 | 51.32312 | -0.84028 | 329 ft | 9 kts | 86° |
| 2026-05-05 14:53 | 51.32289 | -0.83923 | 329 ft | 10 kts | 112° |
| 2026-05-05 14:53 | 51.32304 | -0.83897 | 329 ft | 0 kts | 358° |